createdAt,value
2023-02-28T00:03:50.616Z,102616.74
2023-02-28T00:08:56.315Z,102613.70
2023-02-28T00:14:01.768Z,102618.52
2023-02-28T00:19:07.245Z,102626.34
2023-02-28T00:24:12.660Z,102629.87
2023-02-28T00:29:18.102Z,102626.30
2023-02-28T00:34:23.506Z,102633.19
2023-02-28T00:39:28.888Z,102634.00
2023-02-28T00:44:34.714Z,102639.69
2023-02-28T00:49:40.303Z,102634.91
2023-02-28T00:54:47.368Z,102635.48
2023-02-28T00:59:55.407Z,102635.17
2023-02-28T01:05:01.088Z,102634.34
2023-02-28T01:10:09.371Z,102637.50
2023-02-28T01:15:14.903Z,102640.27
2023-02-28T01:20:20.423Z,102644.44
2023-02-28T01:25:25.987Z,102651.95
2023-02-28T01:30:32.259Z,102647.30
2023-02-28T01:35:38.484Z,102648.09
2023-02-28T01:40:43.980Z,102645.44
2023-02-28T01:45:49.680Z,102645.78
2023-02-28T01:50:57.242Z,102642.23
2023-02-28T01:56:04.341Z,102643.03
2023-02-28T02:01:09.899Z,102640.26
2023-02-28T02:06:15.342Z,102641.48
2023-02-28T02:11:22.846Z,102646.24
2023-02-28T02:16:55.349Z,102647.89
2023-02-28T02:22:16.386Z,102649.57
2023-02-28T02:27:52.049Z,102651.31
2023-02-28T02:33:32.779Z,102654.86
2023-02-28T02:38:47.188Z,102654.92
2023-02-28T02:43:59.446Z,102645.27
2023-02-28T02:49:08.112Z,102644.87
2023-02-28T02:54:29.852Z,102648.32
2023-02-28T02:59:38.318Z,102643.98
2023-02-28T03:04:49.716Z,102642.21
2023-02-28T03:09:57.528Z,102636.01
2023-02-28T03:15:09.535Z,102638.84
2023-02-28T03:20:33.407Z,102644.55
2023-02-28T03:25:58.532Z,102649.45
2023-02-28T03:31:08.307Z,102651.80
2023-02-28T03:36:19.407Z,102652.23
2023-02-28T03:41:28.607Z,102649.23
2023-02-28T03:46:37.453Z,102653.17
2023-02-28T03:51:46.180Z,102657.58
2023-02-28T03:56:54.726Z,102650.66
2023-02-28T04:02:00.798Z,102652.13
2023-02-28T04:07:10.678Z,102644.52
2023-02-28T04:12:16.138Z,102642.52
2023-02-28T04:17:21.633Z,102654.05
2023-02-28T04:22:30.256Z,102658.34
2023-02-28T04:27:36.078Z,102659.12
2023-02-28T04:32:41.624Z,102662.80
2023-02-28T04:37:47.137Z,102667.79
2023-02-28T04:42:52.634Z,102665.48
2023-02-28T04:47:58.241Z,102671.84
2023-02-28T04:53:03.690Z,102678.56
2023-02-28T04:58:10.083Z,102673.30
2023-02-28T05:03:15.861Z,102677.45
2023-02-28T05:08:21.337Z,102677.91
2023-02-28T05:13:27.909Z,102671.13
2023-02-28T05:18:33.587Z,102675.49
2023-02-28T05:23:39.209Z,102673.52
2023-02-28T05:28:44.793Z,102671.31
2023-02-28T05:33:50.589Z,102668.30
2023-02-28T05:38:56.055Z,102669.61
2023-02-28T05:44:02.391Z,102673.94
2023-02-28T05:49:08.107Z,102668.69
2023-02-28T05:54:14.041Z,102672.30
2023-02-28T05:59:24.532Z,102683.64
2023-02-28T06:04:32.137Z,102685.62
2023-02-28T06:09:37.158Z,102700.78
2023-02-28T06:14:42.608Z,102703.60
2023-02-28T06:19:49.138Z,102705.72
2023-02-28T06:24:55.837Z,102710.41
2023-02-28T06:30:01.370Z,102716.58
2023-02-28T06:35:07.665Z,102714.91
2023-02-28T06:40:14.124Z,102718.67
2023-02-28T06:45:20.278Z,102729.42
2023-02-28T06:50:25.878Z,102732.22
2023-02-28T06:55:31.436Z,102728.69
2023-02-28T07:00:36.896Z,102728.21
2023-02-28T07:05:42.589Z,102730.84
2023-02-28T07:10:48.074Z,102744.87
2023-02-28T07:16:17.558Z,102736.05
2023-02-28T07:21:24.184Z,102733.86
2023-02-28T07:26:29.768Z,102728.45
2023-02-28T07:31:35.405Z,102729.52
2023-02-28T07:36:41.126Z,102738.78
2023-02-28T07:41:46.577Z,102738.67
2023-02-28T07:46:52.078Z,102748.02
2023-02-28T07:51:57.734Z,102742.61
2023-02-28T07:57:04.066Z,102740.30
2023-02-28T08:02:11.264Z,102744.25
2023-02-28T08:07:17.665Z,102743.11
2023-02-28T08:12:23.407Z,102745.03
2023-02-28T08:17:28.937Z,102748.70
2023-02-28T08:22:34.490Z,102744.33
2023-02-28T08:27:39.969Z,102746.20
2023-02-28T08:32:45.679Z,102743.61
2023-02-28T08:37:51.729Z,102747.27
2023-02-28T08:42:57.215Z,102746.06
2023-02-28T08:48:02.956Z,102733.80
2023-02-28T08:53:08.509Z,102723.30
2023-02-28T08:58:13.986Z,102722.89
2023-02-28T09:03:20.119Z,102723.76
2023-02-28T09:08:28.936Z,102724.22
2023-02-28T09:13:35.381Z,102723.75
2023-02-28T09:18:41.711Z,102723.75
2023-02-28T09:23:50.414Z,102730.81
2023-02-28T09:28:56.868Z,102730.81
2023-02-28T09:34:02.479Z,102724.94
2023-02-28T09:39:08.403Z,102731.04
2023-02-28T09:44:16.937Z,102745.80
2023-02-28T09:49:25.574Z,102743.55
2023-02-28T09:54:47.293Z,102749.78
2023-02-28T10:00:11.466Z,102737.36
2023-02-28T10:05:26.464Z,102739.57
2023-02-28T10:10:44.184Z,102737.30
2023-02-28T10:15:52.761Z,102729.41
2023-02-28T10:20:59.279Z,102730.23
2023-02-28T10:26:13.811Z,102716.63
2023-02-28T10:31:22.258Z,102731.09
2023-02-28T10:36:29.965Z,102734.22
2023-02-28T10:41:37.585Z,102733.27
2023-02-28T10:46:44.742Z,102738.39
2023-02-28T10:51:53.137Z,102749.97
2023-02-28T10:57:23.061Z,102743.36
2023-02-28T11:07:53.008Z,102732.77
2023-02-28T11:12:53.335Z,102723.05
2023-02-28T11:17:59.157Z,102719.83
2023-02-28T11:23:07.112Z,102707.84
2023-02-28T11:28:30.769Z,102704.21
2023-02-28T11:33:57.462Z,102704.66
2023-02-28T11:39:05.786Z,102697.70
2023-02-28T11:44:29.539Z,102688.81
2023-02-28T11:49:42.172Z,102674.95
2023-02-28T11:55:08.856Z,102675.14
2023-02-28T12:00:36.289Z,102673.38
2023-02-28T12:05:47.624Z,102667.48
2023-02-28T12:11:14.165Z,102677.77
2023-02-28T12:16:27.048Z,102674.98
2023-02-28T12:21:50.914Z,102672.72
2023-02-28T12:26:59.037Z,102670.69
2023-02-28T12:32:10.984Z,102666.91
2023-02-28T12:37:19.662Z,102659.85
2023-02-28T12:42:31.568Z,102653.94
2023-02-28T12:47:38.694Z,102656.48
2023-02-28T12:53:05.232Z,102640.28
2023-02-28T12:58:30.198Z,102639.48
2023-02-28T13:03:56.929Z,102625.05
2023-02-28T13:09:19.839Z,102622.47
2023-02-28T13:14:34.194Z,102614.13
2023-02-28T13:19:48.778Z,102608.16
2023-02-28T13:24:57.024Z,102617.78
2023-02-28T13:30:03.798Z,102611.09
2023-02-28T13:35:12.372Z,102606.21
2023-02-28T13:40:34.558Z,102601.92
2023-02-28T13:45:40.891Z,102597.04
2023-02-28T13:50:47.438Z,102595.09
2023-02-28T13:56:01.524Z,102583.36
2023-02-28T14:01:31.802Z,102585.85
2023-02-28T14:06:40.811Z,102582.89
2023-02-28T14:11:47.823Z,102583.11
2023-02-28T14:16:53.706Z,102588.05
2023-02-28T14:22:02.300Z,102581.80
2023-02-28T14:27:19.789Z,102582.03
2023-02-28T14:32:31.303Z,102580.30
2023-02-28T14:37:40.321Z,102574.01
2023-02-28T14:42:51.785Z,102581.23
2023-02-28T14:48:00.379Z,102572.48
2023-02-28T14:53:08.774Z,102567.06
2023-02-28T14:58:28.791Z,102575.05
2023-02-28T15:03:37.094Z,102568.41
2023-02-28T15:08:42.752Z,102573.61
2023-02-28T15:13:55.781Z,102566.50
2023-02-28T15:19:09.858Z,102565.87
2023-02-28T15:24:18.684Z,102556.58
2023-02-28T15:29:27.016Z,102558.28
2023-02-28T15:34:42.151Z,102560.47
2023-02-28T15:39:45.694Z,102556.91
2023-02-28T15:44:52.309Z,102557.41
2023-02-28T15:50:06.645Z,102563.02
2023-02-28T15:55:15.130Z,102554.84
2023-02-28T16:00:27.028Z,102559.53
2023-02-28T16:05:33.659Z,102547.91
2023-02-28T16:10:39.375Z,102540.26
2023-02-28T16:15:46.088Z,102541.23
2023-02-28T16:20:51.560Z,102546.73
2023-02-28T16:25:57.092Z,102539.85
2023-02-28T16:31:04.319Z,102544.52
2023-02-28T16:36:15.889Z,102543.34
2023-02-28T16:41:24.332Z,102544.38
2023-02-28T16:46:34.180Z,102547.34
2023-02-28T16:51:39.711Z,102555.19
2023-02-28T16:56:48.476Z,102544.66
2023-02-28T17:01:54.909Z,102553.23
2023-02-28T17:07:01.222Z,102552.89
2023-02-28T17:12:07.500Z,102547.70
2023-02-28T17:17:18.971Z,102567.14
2023-02-28T17:22:24.492Z,102569.81
2023-02-28T17:27:30.058Z,102570.69
2023-02-28T17:32:35.592Z,102575.09
2023-02-28T17:37:41.362Z,102575.94
2023-02-28T17:42:47.178Z,102588.72
2023-02-28T17:47:53.034Z,102591.81
2023-02-28T17:52:59.590Z,102590.88
2023-02-28T17:58:06.138Z,102593.47
2023-02-28T18:03:13.301Z,102592.08
2023-02-28T18:08:19.314Z,102602.56
2023-02-28T18:13:24.762Z,102600.77
2023-02-28T18:18:30.229Z,102600.79
2023-02-28T18:23:36.196Z,102608.98
2023-02-28T18:28:43.620Z,102608.00
2023-02-28T18:33:52.504Z,102598.21
2023-02-28T18:38:59.091Z,102597.23
2023-02-28T18:44:13.795Z,102589.22
2023-02-28T18:49:12.407Z,102584.37
2023-02-28T18:54:18.583Z,102587.83
2023-02-28T18:59:24.375Z,102588.15
2023-02-28T19:04:29.885Z,102580.19
2023-02-28T19:09:35.410Z,102576.25
2023-02-28T19:14:40.890Z,102579.30
2023-02-28T19:19:46.374Z,102565.55
2023-02-28T19:24:52.325Z,102564.06
2023-02-28T19:29:59.444Z,102553.91
2023-02-28T19:35:05.423Z,102558.81
2023-02-28T19:40:13.924Z,102563.14
2023-02-28T19:45:19.453Z,102564.02
2023-02-28T19:50:24.972Z,102569.18
2023-02-28T19:55:31.882Z,102570.91
2023-02-28T20:00:37.443Z,102568.26
2023-02-28T20:05:43.147Z,102564.67
2023-02-28T20:10:48.704Z,102560.23
2023-02-28T20:15:55.014Z,102565.45
2023-02-28T20:21:02.054Z,102560.62
2023-02-28T20:26:08.170Z,102557.52
2023-02-28T20:31:16.596Z,102561.01
2023-02-28T20:36:23.588Z,102558.30
2023-02-28T20:41:29.533Z,102558.20
2023-02-28T20:46:35.801Z,102557.78
2023-02-28T20:51:42.466Z,102559.52
2023-02-28T20:56:48.670Z,102561.65
2023-02-28T21:01:56.250Z,102566.53
2023-02-28T21:07:01.705Z,102558.95
2023-02-28T21:12:07.722Z,102566.07
2023-02-28T21:17:13.551Z,102578.69
2023-02-28T21:22:19.000Z,102585.05
2023-02-28T21:27:25.591Z,102587.13
2023-02-28T21:32:33.382Z,102594.94
2023-02-28T21:37:39.814Z,102601.08
2023-02-28T21:42:45.338Z,102600.66
2023-02-28T21:47:50.976Z,102598.89
2023-02-28T21:52:56.435Z,102594.23
2023-02-28T21:58:01.844Z,102595.55
2023-02-28T22:03:07.447Z,102603.81
2023-02-28T22:08:13.146Z,102599.41
2023-02-28T22:13:19.820Z,102610.30
2023-02-28T22:18:25.365Z,102601.51
2023-02-28T22:23:33.626Z,102599.55
2023-02-28T22:28:39.634Z,102580.72
2023-02-28T22:33:46.032Z,102579.31
2023-02-28T22:38:52.900Z,102572.75
2023-02-28T22:44:01.230Z,102574.52
2023-02-28T22:49:07.476Z,102570.13
2023-02-28T22:54:13.127Z,102569.63
2023-02-28T22:59:18.522Z,102571.33
2023-02-28T23:04:25.867Z,102568.80
2023-02-28T23:09:31.388Z,102558.83
2023-02-28T23:14:36.754Z,102556.72
2023-02-28T23:19:42.280Z,102561.94
2023-02-28T23:24:48.030Z,102566.25
2023-02-28T23:29:54.029Z,102565.38
2023-02-28T23:35:00.882Z,102573.92
2023-02-28T23:40:08.885Z,102574.25
2023-02-28T23:45:14.293Z,102571.15
2023-02-28T23:50:19.809Z,102574.57
2023-02-28T23:55:25.272Z,102574.62
